createdAt,value
2017-07-04T05:41:26.160Z,16.73
2017-07-04T05:44:02.411Z,9.80
2017-07-04T07:04:28.643Z,18.30
2017-07-04T07:07:08.883Z,12.48
2017-07-04T07:23:58.875Z,16.70
2017-07-04T07:26:34.012Z,15.18
2017-07-04T07:29:20.082Z,14.10
2017-07-04T07:34:47.862Z,14.98
2017-07-04T07:40:23.810Z,16.37
2017-07-04T07:59:48.340Z,16.87
2017-07-04T08:02:22.200Z,12.77
2017-07-04T08:04:58.803Z,17.58
2017-07-04T08:07:43.081Z,14.15
2017-07-04T08:10:17.923Z,15.85
2017-07-04T08:12:57.974Z,13.73
2017-07-04T08:15:36.130Z,12.65
2017-07-04T08:18:16.461Z,13.55
2017-07-04T08:20:54.266Z,14.40
2017-07-04T08:29:03.712Z,12.93
2017-07-04T08:31:40.009Z,12.45
2017-07-04T08:37:08.613Z,13.47
2017-07-04T08:39:42.709Z,12.30
2017-07-04T08:42:15.259Z,12.40
2017-07-04T08:44:52.212Z,13.80
2017-07-04T08:50:28.699Z,13.87
2017-07-04T08:53:03.794Z,13.00
2017-07-04T08:55:37.838Z,10.30
2017-07-04T08:58:15.383Z,11.20
2017-07-04T09:01:04.775Z,14.50
2017-07-04T09:03:39.251Z,9.87
2017-07-04T09:06:17.455Z,10.70
2017-07-04T09:08:51.800Z,9.93
2017-07-04T09:11:33.770Z,10.38
2017-07-04T09:14:07.418Z,9.80
2017-07-04T09:16:42.789Z,14.83
2017-07-04T09:19:16.759Z,9.67
2017-07-04T09:24:35.183Z,10.53
2017-07-04T09:30:13.770Z,10.57
2017-07-04T09:32:50.702Z,11.17
2017-07-04T09:35:24.607Z,12.70
2017-07-04T09:37:59.672Z,12.03
2017-07-04T09:40:33.308Z,12.30
2017-07-04T09:43:11.037Z,12.20
2017-07-04T09:45:44.629Z,10.67
2017-07-04T09:51:08.782Z,12.77
2017-07-04T09:53:43.647Z,12.93
2017-07-04T09:56:18.133Z,11.43
2017-07-04T09:58:53.522Z,11.77
2017-07-04T10:01:24.361Z,11.93
2017-07-04T10:03:55.819Z,11.43
2017-07-04T10:06:30.552Z,11.77
2017-07-04T10:09:05.683Z,11.40
2017-07-04T10:20:31.651Z,11.40
2017-07-04T10:23:08.045Z,11.73
2017-07-04T10:28:40.361Z,11.67
2017-07-04T10:31:11.296Z,11.43
2017-07-04T10:33:56.648Z,13.50
2017-07-04T10:36:34.216Z,13.03
2017-07-04T10:39:10.883Z,12.80
2017-07-04T10:41:55.147Z,12.70
2017-07-04T10:44:28.134Z,13.73
2017-07-04T10:47:03.649Z,12.83
2017-07-04T10:49:37.589Z,13.63
2017-07-04T10:52:12.605Z,13.03
2017-07-04T10:54:48.573Z,12.10
2017-07-04T10:57:21.199Z,12.80
2017-07-04T10:59:54.798Z,14.10
2017-07-04T11:02:26.231Z,13.77
2017-07-04T11:04:59.815Z,13.70
2017-07-04T11:07:34.110Z,14.23
2017-07-04T11:10:07.538Z,13.20
2017-07-04T11:12:48.239Z,12.93
2017-07-04T11:15:19.618Z,13.80
2017-07-04T11:17:55.101Z,15.43
2017-07-04T11:20:29.414Z,14.20
2017-07-04T11:23:04.182Z,16.33
2017-07-04T11:25:41.878Z,13.60
2017-07-04T11:28:15.692Z,14.43
2017-07-04T11:30:51.686Z,13.47
2017-07-04T11:33:22.803Z,13.13
2017-07-04T11:35:57.969Z,13.33
2017-07-04T11:38:31.767Z,12.47
2017-07-04T11:41:06.796Z,12.43
2017-07-04T11:43:38.415Z,13.87
2017-07-04T11:46:10.005Z,13.03
2017-07-04T11:48:41.668Z,12.93
2017-07-04T11:51:15.499Z,12.07
2017-07-04T11:53:46.289Z,12.57
2017-07-04T11:56:17.860Z,11.50
2017-07-04T11:58:49.479Z,12.67
2017-07-04T12:01:23.643Z,13.00
2017-07-04T12:03:54.658Z,13.20
2017-07-04T12:06:25.631Z,12.00
2017-07-04T12:08:56.371Z,12.50
2017-07-04T12:11:29.045Z,13.80
2017-07-04T12:14:00.661Z,13.50
2017-07-04T12:16:32.000Z,13.10
2017-07-04T12:19:03.473Z,11.90
2017-07-04T12:21:37.930Z,11.50
2017-07-04T12:24:09.283Z,12.93
2017-07-04T12:26:40.140Z,13.50
2017-07-04T12:29:11.629Z,13.70
2017-07-04T12:31:43.853Z,12.73
2017-07-04T12:34:16.139Z,13.97
2017-07-04T12:36:47.173Z,13.80
2017-07-04T12:39:19.447Z,14.43
2017-07-04T12:41:50.906Z,13.40
2017-07-04T12:44:25.356Z,12.87
2017-07-04T12:46:57.744Z,11.30
2017-07-04T12:49:28.775Z,14.60
2017-07-04T12:51:59.647Z,12.00
2017-07-04T12:54:40.453Z,11.27
2017-07-04T12:57:14.876Z,12.13
2017-07-04T12:59:48.466Z,11.67
2017-07-04T13:05:01.572Z,12.20
2017-07-04T13:07:36.468Z,11.27
2017-07-04T13:10:11.250Z,10.70
2017-07-04T13:12:49.418Z,11.50
2017-07-04T13:15:26.995Z,11.10
2017-07-04T13:17:58.468Z,9.63
2017-07-04T13:20:32.391Z,9.13
2017-07-04T13:23:15.553Z,8.97
2017-07-04T13:25:52.983Z,9.33
2017-07-04T13:28:26.677Z,8.43
2017-07-04T13:31:03.500Z,9.13
2017-07-04T13:33:37.356Z,8.87
2017-07-04T13:36:09.231Z,8.90
2017-07-04T13:38:44.820Z,9.20
2017-07-04T13:41:16.615Z,8.50
2017-07-04T13:43:50.887Z,8.77
2017-07-04T13:46:21.966Z,8.20
2017-07-04T13:48:55.383Z,7.43
2017-07-04T13:51:30.264Z,8.10
2017-07-04T13:54:11.774Z,7.43
2017-07-04T13:56:47.030Z,7.07
2017-07-04T13:59:21.719Z,6.37
2017-07-04T14:01:55.403Z,6.60
2017-07-04T14:04:30.908Z,5.80
2017-07-04T14:07:03.604Z,6.50
2017-07-04T14:09:35.436Z,6.63
2017-07-04T14:12:10.557Z,8.27
2017-07-04T14:14:41.424Z,5.80
2017-07-04T14:17:18.018Z,7.43
2017-07-04T14:19:49.560Z,4.53
2017-07-04T14:22:23.744Z,4.70
2017-07-04T14:24:54.849Z,6.37
2017-07-04T14:27:29.250Z,5.57
2017-07-04T14:30:03.943Z,4.97
2017-07-04T14:32:38.017Z,4.53
2017-07-04T14:35:13.484Z,5.00
2017-07-04T14:37:48.919Z,4.50
2017-07-04T14:40:18.160Z,5.67
2017-07-04T14:42:55.832Z,4.67
2017-07-04T14:45:27.177Z,4.90
2017-07-04T14:47:58.338Z,4.57
2017-07-04T14:50:29.156Z,5.37
2017-07-04T14:53:03.015Z,4.20
2017-07-04T14:55:37.051Z,5.07
2017-07-04T14:58:19.315Z,4.37
2017-07-04T15:00:53.884Z,3.67
2017-07-04T15:03:27.592Z,4.00
2017-07-04T15:06:01.524Z,4.97
2017-07-04T15:08:37.170Z,4.70
2017-07-04T15:11:08.703Z,4.37
2017-07-04T15:13:44.237Z,3.90
2017-07-04T15:16:16.450Z,4.23
2017-07-04T15:18:54.092Z,4.47
2017-07-04T15:21:24.119Z,4.60
2017-07-04T15:23:56.671Z,4.00
2017-07-04T15:26:33.524Z,4.80
2017-07-04T15:29:09.236Z,4.10
2017-07-04T15:31:54.614Z,3.67
2017-07-04T15:34:23.870Z,4.80
2017-07-04T15:36:59.021Z,3.20
2017-07-04T15:39:30.619Z,3.60
2017-07-04T15:42:12.288Z,4.23
2017-07-04T15:44:47.789Z,4.10
2017-07-04T15:47:26.103Z,3.93
2017-07-04T15:50:01.339Z,4.53
2017-07-04T15:52:36.090Z,3.70
2017-07-04T15:55:11.998Z,4.10
2017-07-04T15:57:48.242Z,3.83
2017-07-04T16:00:19.324Z,3.80
2017-07-04T16:02:53.702Z,3.97
2017-07-04T16:05:29.779Z,3.70
2017-07-04T16:07:59.737Z,5.73
2017-07-04T16:10:35.171Z,4.30
2017-07-04T16:13:08.139Z,3.80
2017-07-04T16:15:53.127Z,3.63
2017-07-04T16:18:26.951Z,3.70
2017-07-04T16:20:58.442Z,4.33
2017-07-04T16:23:34.595Z,3.97
2017-07-04T16:26:05.577Z,3.40
2017-07-04T16:28:40.080Z,5.80
2017-07-04T16:31:17.587Z,3.57
2017-07-04T16:33:49.019Z,4.33
2017-07-04T16:36:23.410Z,3.17
2017-07-04T16:38:56.995Z,3.93
2017-07-04T16:41:33.214Z,3.90
2017-07-04T16:44:08.245Z,3.57
2017-07-04T16:46:43.479Z,3.80
2017-07-04T16:49:15.798Z,3.63
2017-07-04T16:51:50.067Z,3.50
2017-07-04T16:54:25.477Z,3.23
2017-07-04T16:57:03.387Z,3.43
2017-07-04T16:59:37.052Z,6.93
2017-07-04T17:02:10.738Z,3.90
2017-07-04T17:04:44.813Z,3.80
2017-07-04T17:07:19.391Z,3.80
2017-07-04T17:09:57.511Z,3.40
2017-07-04T17:12:31.359Z,3.93
2017-07-04T17:15:08.036Z,3.53
2017-07-04T17:17:39.537Z,4.47
2017-07-04T17:20:15.767Z,4.03
2017-07-04T17:22:55.167Z,4.20
2017-07-04T17:25:36.954Z,4.00
2017-07-04T17:28:26.466Z,4.47
2017-07-04T17:36:59.607Z,4.33
2017-07-04T17:42:35.850Z,4.70
2017-07-04T17:50:53.958Z,5.00
2017-07-04T17:53:42.959Z,3.97
